Lakeland, Louisiana
Current Conditions -  °F | °C
As of 7:15 PM on Friday 21 Nov 2014 (Local Time) from KHZR Reporting Station
Overcast Overcast  
Wind Chill: 62°   Ceiling: 11000
Heat Index: 62°   Visibility: 10mi
Dew Point: 52°   Wind: 9mph
Humidity: 68%   Direction: 110°ESE
Pressure: 30.26"   Gusts: NA
Location:  30.6°N, 91.4°W
Report Text: KHZR 220115Z AUTO 11008KT 10SM OVC110 17/11 A3026 RMK AO2 T01690110
Loading
Personal Weather Stations






























Interactive Weather Map New forecast layout! Learn more

10-Day Weather Forecast

Advertisements
Track Severe Weather on mobile